createdAt,value
2017-10-05T00:00:08.942Z,12.66
2017-10-05T00:02:38.029Z,12.67
2017-10-05T00:05:07.108Z,12.67
2017-10-05T00:07:35.431Z,12.69
2017-10-05T00:10:03.734Z,12.70
2017-10-05T00:12:32.054Z,12.70
2017-10-05T00:15:01.129Z,12.73
2017-10-05T00:17:29.446Z,12.73
2017-10-05T00:19:57.749Z,12.69
2017-10-05T00:22:26.063Z,12.69
2017-10-05T00:24:54.365Z,12.74
2017-10-05T00:27:23.490Z,12.72
2017-10-05T00:32:25.450Z,12.79
2017-10-05T00:34:53.754Z,12.81
2017-10-05T00:37:22.107Z,12.80
2017-10-05T00:39:50.418Z,12.83
2017-10-05T00:42:18.718Z,12.83
2017-10-05T00:44:47.034Z,12.86
2017-10-05T00:47:16.118Z,12.86
2017-10-05T00:49:45.213Z,12.85
2017-10-05T00:52:13.529Z,12.82
2017-10-05T00:54:41.849Z,12.83
2017-10-05T00:57:10.157Z,12.86
2017-10-05T00:59:39.229Z,12.87
2017-10-05T01:02:07.542Z,12.85
2017-10-05T01:04:35.868Z,12.83
2017-10-05T01:07:04.173Z,12.83
2017-10-05T01:09:32.501Z,12.79
2017-10-05T01:12:00.805Z,12.77
2017-10-05T01:14:29.126Z,12.82
2017-10-05T01:16:57.435Z,12.79
2017-10-05T01:19:25.750Z,12.80
2017-10-05T01:21:54.070Z,12.87
2017-10-05T01:24:22.398Z,12.87
2017-10-05T01:26:50.705Z,12.80
2017-10-05T01:29:19.054Z,12.80
2017-10-05T01:31:47.361Z,12.87
2017-10-05T01:34:15.662Z,12.86
2017-10-05T01:36:43.973Z,12.89
2017-10-05T01:39:12.274Z,12.85
2017-10-05T01:41:41.362Z,12.90
2017-10-05T01:44:09.692Z,12.85
2017-10-05T01:46:38.012Z,12.86
2017-10-05T01:49:06.317Z,12.85
2017-10-05T01:51:35.396Z,12.86
2017-10-05T01:54:03.722Z,12.87
2017-10-05T01:56:32.041Z,12.93
2017-10-05T01:59:00.356Z,12.91
2017-10-05T02:01:28.673Z,12.94
2017-10-05T02:03:56.995Z,12.93
2017-10-05T02:06:26.077Z,12.92
2017-10-05T02:08:55.187Z,12.90
2017-10-05T02:11:24.282Z,12.92
2017-10-05T02:13:53.353Z,12.94
2017-10-05T02:16:21.686Z,12.91
2017-10-05T02:18:49.998Z,12.96
2017-10-05T02:21:18.314Z,12.96
2017-10-05T02:23:47.381Z,12.98
2017-10-05T02:26:15.714Z,13.02
2017-10-05T02:28:44.017Z,12.99
2017-10-05T02:31:12.319Z,13.04
2017-10-05T02:33:40.625Z,12.96
2017-10-05T02:36:17.709Z,12.97
2017-10-05T02:38:46.038Z,12.99
2017-10-05T02:41:14.341Z,12.98
2017-10-05T02:43:43.436Z,13.00
2017-10-05T02:46:12.501Z,12.97
2017-10-05T02:48:40.814Z,13.00
2017-10-05T02:51:09.885Z,12.99
2017-10-05T02:53:38.196Z,12.91
2017-10-05T02:56:06.491Z,12.87
2017-10-05T02:58:34.805Z,12.78
2017-10-05T03:01:03.105Z,12.76
2017-10-05T03:03:32.188Z,12.75
2017-10-05T03:06:00.485Z,12.68
2017-10-05T03:08:29.569Z,12.65
2017-10-05T03:10:57.873Z,12.63
2017-10-05T03:13:26.213Z,12.60
2017-10-05T03:15:54.509Z,12.52
2017-10-05T03:18:23.568Z,12.54
2017-10-05T03:20:51.885Z,12.53
2017-10-05T03:23:20.948Z,12.53
2017-10-05T03:25:49.245Z,12.54
2017-10-05T03:28:18.357Z,12.56
2017-10-05T03:30:46.662Z,12.58
2017-10-05T03:33:14.965Z,12.53
2017-10-05T03:35:43.273Z,12.58
2017-10-05T03:38:11.596Z,12.55
2017-10-05T03:40:39.910Z,12.55
2017-10-05T03:43:08.206Z,12.60
2017-10-05T03:45:37.288Z,12.60
2017-10-05T03:48:05.576Z,12.61
2017-10-05T03:50:33.885Z,12.57
2017-10-05T03:53:02.190Z,12.54
2017-10-05T03:55:31.333Z,12.54
2017-10-05T03:58:00.419Z,12.51
2017-10-05T04:00:28.717Z,12.42
2017-10-05T04:02:57.043Z,12.46
2017-10-05T04:05:25.345Z,12.44
2017-10-05T04:07:53.661Z,12.34
2017-10-05T04:10:21.961Z,12.32
2017-10-05T04:12:50.266Z,12.31
2017-10-05T04:15:18.565Z,12.18
2017-10-05T04:17:47.645Z,12.14
2017-10-05T04:20:15.949Z,12.06
2017-10-05T04:22:45.010Z,12.05
2017-10-05T04:25:13.296Z,12.07
2017-10-05T04:27:41.598Z,12.05
2017-10-05T04:30:09.904Z,11.93
2017-10-05T04:32:38.208Z,11.82
2017-10-05T04:35:06.505Z,11.75
2017-10-05T04:37:34.818Z,11.70
2017-10-05T04:40:03.136Z,11.68
2017-10-05T04:42:31.446Z,11.63
2017-10-05T04:45:00.508Z,11.55
2017-10-05T04:47:28.805Z,11.52
2017-10-05T04:49:57.097Z,11.49
2017-10-05T04:52:26.170Z,11.44
2017-10-05T04:54:54.481Z,11.49
2017-10-05T04:57:23.541Z,11.45
2017-10-05T04:59:51.858Z,11.49
2017-10-05T05:02:20.913Z,11.54
2017-10-05T05:04:49.216Z,11.65
2017-10-05T05:07:18.268Z,11.46
2017-10-05T05:09:46.573Z,11.48
2017-10-05T05:12:14.866Z,11.51
2017-10-05T05:14:43.929Z,11.32
2017-10-05T05:17:12.224Z,11.40
2017-10-05T05:19:41.304Z,11.39
2017-10-05T05:22:09.593Z,11.36
2017-10-05T05:24:37.906Z,11.32
2017-10-05T05:27:06.204Z,11.36
2017-10-05T05:29:34.533Z,11.44
2017-10-05T05:32:03.597Z,11.31
2017-10-05T05:34:31.901Z,11.33
2017-10-05T05:37:00.203Z,11.38
2017-10-05T05:39:29.264Z,11.34
2017-10-05T05:41:57.560Z,11.30
2017-10-05T05:44:26.624Z,11.35
2017-10-05T05:46:54.921Z,11.37
2017-10-05T05:49:23.224Z,11.48
2017-10-05T05:51:51.582Z,11.49
2017-10-05T05:54:20.644Z,11.47
2017-10-05T05:56:48.936Z,11.33
2017-10-05T05:59:17.245Z,11.42
2017-10-05T06:01:46.354Z,11.47
2017-10-05T06:04:14.649Z,11.53
2017-10-05T06:06:42.960Z,11.51
2017-10-05T06:09:11.252Z,11.52
2017-10-05T06:11:39.552Z,11.60
2017-10-05T06:14:08.605Z,11.68
2017-10-05T06:16:36.932Z,11.71
2017-10-05T06:19:05.230Z,11.63
2017-10-05T06:21:33.532Z,11.62
2017-10-05T06:24:01.832Z,11.64
2017-10-05T06:26:30.138Z,11.71
2017-10-05T06:28:58.429Z,11.78
2017-10-05T06:31:26.723Z,11.74
2017-10-05T06:33:55.023Z,11.74
2017-10-05T06:36:23.330Z,11.63
2017-10-05T06:38:52.377Z,11.63
2017-10-05T06:41:20.677Z,11.64
2017-10-05T06:43:48.972Z,11.60
2017-10-05T06:46:18.053Z,11.61
2017-10-05T06:48:46.345Z,11.63
2017-10-05T06:51:15.441Z,11.81
2017-10-05T06:53:44.502Z,11.75
2017-10-05T06:56:12.850Z,11.61
2017-10-05T06:58:41.144Z,11.51
2017-10-05T07:01:09.437Z,11.66
2017-10-05T07:03:37.745Z,11.70
2017-10-05T07:06:06.808Z,11.75
2017-10-05T07:08:35.109Z,11.76
2017-10-05T07:11:03.416Z,11.73
2017-10-05T07:13:31.720Z,11.80
2017-10-05T07:16:00.005Z,11.79
2017-10-05T07:18:28.312Z,11.87
2017-10-05T07:20:56.605Z,11.92
2017-10-05T07:23:25.670Z,11.99
2017-10-05T07:25:53.965Z,11.94
2017-10-05T07:28:22.279Z,11.98
2017-10-05T07:30:50.581Z,12.11
2017-10-05T07:33:18.928Z,11.99
2017-10-05T07:35:47.217Z,12.03
2017-10-05T07:38:15.512Z,11.92
2017-10-05T07:40:43.813Z,12.00
2017-10-05T07:43:12.137Z,12.07
2017-10-05T07:45:40.424Z,12.14
2017-10-05T07:48:09.630Z,12.14
2017-10-05T07:50:37.933Z,12.14
2017-10-05T07:53:06.253Z,12.12
2017-10-05T07:55:35.337Z,11.99
2017-10-05T07:58:04.404Z,12.06
2017-10-05T08:00:32.719Z,12.25
2017-10-05T08:03:01.788Z,12.07
2017-10-05T08:05:30.100Z,12.16
2017-10-05T08:07:58.400Z,12.22
2017-10-05T08:10:26.701Z,12.25
2017-10-05T08:12:55.005Z,12.37
2017-10-05T08:15:24.077Z,12.33
2017-10-05T08:17:52.424Z,12.22
2017-10-05T08:20:20.785Z,12.34
2017-10-05T08:22:49.106Z,12.36
2017-10-05T08:25:17.422Z,12.44
2017-10-05T08:27:46.477Z,12.35
2017-10-05T08:30:14.791Z,12.44
2017-10-05T08:32:43.852Z,12.29
2017-10-05T08:35:12.153Z,12.28
2017-10-05T08:37:40.454Z,12.40
2017-10-05T08:40:08.766Z,12.44
2017-10-05T08:42:37.061Z,12.51
2017-10-05T08:45:05.381Z,12.51
2017-10-05T08:47:34.463Z,12.58
2017-10-05T08:50:03.520Z,12.68
2017-10-05T08:52:31.829Z,12.74
2017-10-05T08:55:00.125Z,12.82
2017-10-05T08:57:29.197Z,12.69
2017-10-05T08:59:57.497Z,12.64
2017-10-05T09:02:26.571Z,12.73
2017-10-05T09:04:54.863Z,12.83
2017-10-05T09:07:23.937Z,12.81
2017-10-05T09:09:52.230Z,12.86
2017-10-05T09:12:21.301Z,12.97
2017-10-05T09:14:49.601Z,13.04
2017-10-05T09:17:18.669Z,13.15
2017-10-05T09:19:46.965Z,13.03
2017-10-05T09:22:15.264Z,12.88
2017-10-05T09:24:44.316Z,12.92
2017-10-05T09:27:12.624Z,13.05
2017-10-05T09:29:41.689Z,13.02
2017-10-05T09:32:09.990Z,13.04
2017-10-05T09:34:38.285Z,12.95
2017-10-05T09:37:06.591Z,12.82
2017-10-05T09:39:34.884Z,12.77
2017-10-05T09:42:03.232Z,12.65
2017-10-05T09:44:31.531Z,12.75
2017-10-05T09:46:59.824Z,12.83
2017-10-05T09:49:28.127Z,12.86
2017-10-05T09:51:56.441Z,12.86
2017-10-05T09:54:24.736Z,12.98
2017-10-05T09:56:53.033Z,12.90
2017-10-05T09:59:21.333Z,12.95
2017-10-05T10:01:49.641Z,12.95
2017-10-05T10:04:17.941Z,12.92
2017-10-05T10:06:46.241Z,12.94
2017-10-05T10:09:14.648Z,13.09
2017-10-05T10:11:43.708Z,13.09
2017-10-05T10:14:12.013Z,13.21
2017-10-05T10:16:40.325Z,13.21
2017-10-05T10:19:08.629Z,13.32
2017-10-05T10:21:36.936Z,13.38
2017-10-05T10:24:05.241Z,13.27
2017-10-05T10:26:34.307Z,13.24
2017-10-05T10:29:02.611Z,13.40
2017-10-05T10:31:31.679Z,13.60
2017-10-05T10:34:00.005Z,13.55
2017-10-05T10:36:28.293Z,13.68
2017-10-05T10:38:56.593Z,13.72
2017-10-05T10:41:24.897Z,14.01
2017-10-05T10:43:53.189Z,14.32
2017-10-05T10:46:22.274Z,14.42
2017-10-05T10:48:51.393Z,14.49
2017-10-05T10:51:19.696Z,14.59
2017-10-05T10:53:47.990Z,15.07
2017-10-05T10:56:16.298Z,15.25
2017-10-05T10:58:45.356Z,15.34
2017-10-05T11:01:13.659Z,15.31
2017-10-05T11:03:41.962Z,15.26
2017-10-05T11:06:11.042Z,15.67
2017-10-05T11:08:39.340Z,15.65
2017-10-05T11:11:07.640Z,15.56
2017-10-05T11:13:35.939Z,15.81
2017-10-05T11:16:05.005Z,16.01
2017-10-05T11:18:33.389Z,16.25
2017-10-05T11:21:01.717Z,16.28
2017-10-05T11:23:30.013Z,16.44
2017-10-05T11:25:59.120Z,16.54
2017-10-05T11:28:27.450Z,16.39
2017-10-05T11:30:55.809Z,17.33
2017-10-05T11:33:24.125Z,17.37
2017-10-05T11:35:52.425Z,17.20
2017-10-05T11:38:21.491Z,16.61
2017-10-05T11:40:49.797Z,16.25
2017-10-05T11:43:18.866Z,16.31
2017-10-05T11:45:47.153Z,16.02
2017-10-05T11:48:16.228Z,16.18
2017-10-05T11:50:44.529Z,16.45
2017-10-05T11:53:12.845Z,16.60
2017-10-05T11:55:41.132Z,16.90
2017-10-05T11:58:09.438Z,17.16
2017-10-05T12:00:37.732Z,17.07
2017-10-05T12:03:06.029Z,17.43
2017-10-05T12:05:34.332Z,17.94
2017-10-05T12:08:02.657Z,17.80
2017-10-05T12:10:30.949Z,17.82
2017-10-05T12:13:00.027Z,17.82
2017-10-05T12:15:28.333Z,17.57
2017-10-05T12:17:56.730Z,17.33
2017-10-05T12:20:25.038Z,17.46
2017-10-05T12:22:53.330Z,17.31
2017-10-05T12:25:21.624Z,17.18
2017-10-05T12:27:50.692Z,17.38
2017-10-05T12:30:19.001Z,17.48
2017-10-05T12:32:48.063Z,18.10
2017-10-05T12:35:16.374Z,17.80
2017-10-05T12:37:45.440Z,17.50
2017-10-05T12:40:13.739Z,17.25
2017-10-05T12:42:42.811Z,17.79
2017-10-05T12:45:11.116Z,18.18
2017-10-05T12:47:40.190Z,17.61
2017-10-05T12:50:09.291Z,16.93
2017-10-05T12:52:37.674Z,17.14
2017-10-05T12:55:05.969Z,16.99
2017-10-05T12:57:34.283Z,16.37
2017-10-05T13:00:02.589Z,15.71
2017-10-05T13:02:30.902Z,15.93
2017-10-05T13:04:59.259Z,15.52
2017-10-05T13:07:27.660Z,15.57
2017-10-05T13:09:55.970Z,15.08
2017-10-05T13:12:24.272Z,15.34
2017-10-05T13:14:53.333Z,14.96
2017-10-05T13:17:21.643Z,14.83
2017-10-05T13:19:50.722Z,14.94
2017-10-05T13:22:19.797Z,15.24
2017-10-05T13:24:48.096Z,15.51
2017-10-05T13:27:17.604Z,15.53
2017-10-05T13:29:46.680Z,15.44
2017-10-05T13:32:14.998Z,15.24
2017-10-05T13:34:43.296Z,14.23
2017-10-05T13:37:11.768Z,14.04
2017-10-05T13:39:40.056Z,13.97
2017-10-05T13:42:08.348Z,13.93
2017-10-05T13:44:36.649Z,13.73
2017-10-05T13:47:04.946Z,13.78
2017-10-05T13:49:34.005Z,13.54
2017-10-05T13:52:02.325Z,13.61
2017-10-05T13:54:31.387Z,13.50
2017-10-05T13:56:59.686Z,13.34
2017-10-05T13:59:28.750Z,13.28
2017-10-05T14:01:57.058Z,13.09
2017-10-05T14:04:26.133Z,12.97
2017-10-05T14:06:54.424Z,13.08
2017-10-05T14:09:23.523Z,13.20
2017-10-05T14:11:52.590Z,13.12
2017-10-05T14:14:20.896Z,12.84
2017-10-05T14:16:49.968Z,12.64
2017-10-05T14:19:18.279Z,12.66
2017-10-05T14:21:47.351Z,12.74
2017-10-05T14:24:15.661Z,12.70
2017-10-05T14:26:43.962Z,12.55
2017-10-05T14:29:12.259Z,12.62
2017-10-05T14:31:40.573Z,12.42
2017-10-05T14:34:09.630Z,12.69
2017-10-05T14:36:37.944Z,12.57
2017-10-05T14:39:07.013Z,12.48
2017-10-05T14:41:35.322Z,12.43
2017-10-05T14:44:04.385Z,12.37
2017-10-05T14:46:32.693Z,12.71
2017-10-05T14:49:01.769Z,12.34
2017-10-05T14:51:30.065Z,12.15
2017-10-05T14:53:59.135Z,12.33
2017-10-05T14:56:29.057Z,12.35
2017-10-05T14:58:57.367Z,12.58
2017-10-05T15:01:25.716Z,12.29
2017-10-05T15:03:54.023Z,12.29
2017-10-05T15:06:22.321Z,12.28
2017-10-05T15:08:50.628Z,12.16
2017-10-05T15:11:20.432Z,12.25
2017-10-05T15:13:48.735Z,12.14
2017-10-05T15:16:17.040Z,11.95
2017-10-05T15:18:45.337Z,11.89
2017-10-05T15:21:13.674Z,11.78
2017-10-05T15:23:42.737Z,11.77
2017-10-05T15:26:11.046Z,11.72
2017-10-05T15:28:40.124Z,11.87
2017-10-05T15:31:08.429Z,11.96
2017-10-05T15:33:36.738Z,11.95
2017-10-05T15:36:05.037Z,12.12
2017-10-05T15:38:33.337Z,12.10
2017-10-05T15:41:01.637Z,12.08
2017-10-05T15:43:30.717Z,11.99
2017-10-05T15:45:59.773Z,11.90
2017-10-05T15:48:28.176Z,11.82
2017-10-05T15:50:56.479Z,11.67
2017-10-05T15:53:24.809Z,11.58
2017-10-05T15:55:53.124Z,11.54
2017-10-05T15:58:22.207Z,11.47
2017-10-05T16:00:50.497Z,11.43
2017-10-05T16:03:19.586Z,11.45
2017-10-05T16:05:47.882Z,11.41
2017-10-05T16:08:16.192Z,11.31
2017-10-05T16:10:44.499Z,11.25
2017-10-05T16:13:12.813Z,11.18
2017-10-05T16:15:41.886Z,11.20
2017-10-05T16:18:10.212Z,11.10
2017-10-05T16:20:38.510Z,11.04
2017-10-05T16:23:07.521Z,10.97
2017-10-05T16:25:35.821Z,10.99
2017-10-05T16:28:04.878Z,10.96
2017-10-05T16:30:33.192Z,10.90
2017-10-05T16:33:02.252Z,10.90
2017-10-05T16:35:30.553Z,10.88
2017-10-05T16:37:58.893Z,10.87
2017-10-05T16:40:27.202Z,10.89
2017-10-05T16:42:55.496Z,10.86
2017-10-05T16:45:24.558Z,10.91
2017-10-05T16:47:52.868Z,10.88
2017-10-05T16:50:21.948Z,10.94
2017-10-05T16:52:50.238Z,10.88
2017-10-05T16:55:19.308Z,10.83
2017-10-05T16:57:47.606Z,10.81
2017-10-05T17:00:15.924Z,10.76
2017-10-05T17:02:44.225Z,10.76
2017-10-05T17:05:12.520Z,10.80
2017-10-05T17:07:40.813Z,10.81
2017-10-05T17:10:09.113Z,10.84
2017-10-05T17:12:37.407Z,10.86
2017-10-05T17:15:05.739Z,10.87
2017-10-05T17:17:34.045Z,10.87
2017-10-05T17:20:02.406Z,10.89
2017-10-05T17:22:30.748Z,10.96
2017-10-05T17:24:59.049Z,11.04
2017-10-05T17:27:27.376Z,11.10
2017-10-05T17:29:55.681Z,11.16
2017-10-05T17:32:23.992Z,11.12
2017-10-05T17:34:52.307Z,11.09
2017-10-05T17:37:20.613Z,10.99
2017-10-05T17:39:48.931Z,10.92
2017-10-05T17:42:17.263Z,10.87
2017-10-05T17:44:45.563Z,10.82
2017-10-05T17:47:13.886Z,10.82
2017-10-05T17:49:42.187Z,10.77
2017-10-05T17:52:10.502Z,10.74
2017-10-05T17:54:38.809Z,10.74
2017-10-05T17:57:07.128Z,10.75
2017-10-05T17:59:35.477Z,10.78
2017-10-05T18:02:03.780Z,10.81
2017-10-05T18:04:32.093Z,10.78
2017-10-05T18:07:01.189Z,10.75
2017-10-05T18:09:29.509Z,10.74
2017-10-05T18:11:57.816Z,10.76
2017-10-05T18:14:26.156Z,10.82
2017-10-05T18:16:54.474Z,10.82
2017-10-05T18:19:22.777Z,10.84
2017-10-05T18:21:51.852Z,10.85
2017-10-05T18:24:20.209Z,10.84
2017-10-05T18:26:48.516Z,10.72
2017-10-05T18:29:17.010Z,10.66
2017-10-05T18:31:46.078Z,10.72
2017-10-05T18:34:14.387Z,10.74
2017-10-05T18:36:43.465Z,10.79
2017-10-05T18:39:11.782Z,10.80
2017-10-05T18:41:40.089Z,10.72
2017-10-05T18:44:08.400Z,10.68
2017-10-05T18:46:36.785Z,10.72
2017-10-05T18:49:05.101Z,10.69
2017-10-05T18:51:34.333Z,10.72
2017-10-05T18:54:02.661Z,10.78
2017-10-05T18:56:30.972Z,10.88
2017-10-05T18:58:59.294Z,10.99
2017-10-05T19:01:27.608Z,10.96
2017-10-05T19:03:55.907Z,10.89
2017-10-05T19:06:24.222Z,10.81
2017-10-05T19:08:52.532Z,10.85
2017-10-05T19:11:20.866Z,10.87
2017-10-05T19:13:49.202Z,10.82
2017-10-05T19:16:17.525Z,10.87
2017-10-05T19:18:45.830Z,10.96
2017-10-05T19:21:14.910Z,11.05
2017-10-05T19:23:44.021Z,11.08
2017-10-05T19:26:13.114Z,11.12
2017-10-05T19:28:42.196Z,11.06
2017-10-05T19:31:11.284Z,10.99
2017-10-05T19:33:39.598Z,10.94
2017-10-05T19:36:07.914Z,10.94
2017-10-05T19:38:36.221Z,10.93
2017-10-05T19:41:04.530Z,10.93
2017-10-05T19:43:32.841Z,10.91
2017-10-05T19:46:01.147Z,10.92
2017-10-05T19:48:29.490Z,10.89
2017-10-05T19:50:57.802Z,10.93
2017-10-05T19:53:26.130Z,10.97
2017-10-05T19:55:54.443Z,11.00
2017-10-05T19:58:22.766Z,10.97
2017-10-05T20:00:51.090Z,10.94
2017-10-05T20:03:19.421Z,10.93
2017-10-05T20:05:47.770Z,10.89
2017-10-05T20:08:16.867Z,10.96
2017-10-05T20:10:45.969Z,10.91
2017-10-05T20:13:15.065Z,10.93
2017-10-05T20:15:49.282Z,10.93
2017-10-05T20:18:21.678Z,10.90
2017-10-05T20:20:55.470Z,10.85
2017-10-05T20:23:26.365Z,10.87
2017-10-05T20:26:00.033Z,10.92
2017-10-05T20:28:33.906Z,10.89
2017-10-05T20:31:05.201Z,10.84
2017-10-05T20:33:33.557Z,10.88
2017-10-05T20:36:01.869Z,10.88
2017-10-05T20:38:30.189Z,10.90
2017-10-05T20:40:59.283Z,10.84
2017-10-05T20:43:28.366Z,10.90
2017-10-05T20:45:56.689Z,10.91
2017-10-05T20:48:24.999Z,10.93
2017-10-05T20:50:53.333Z,10.95
2017-10-05T20:53:21.646Z,10.94
2017-10-05T20:55:49.983Z,10.97
2017-10-05T20:58:18.311Z,10.93
2017-10-05T21:00:46.634Z,10.94
2017-10-05T21:03:15.709Z,10.93
2017-10-05T21:05:44.023Z,10.85
2017-10-05T21:08:12.353Z,10.87
2017-10-05T21:10:40.674Z,10.89
2017-10-05T21:13:09.002Z,10.86
2017-10-05T21:15:37.312Z,10.85
2017-10-05T21:18:06.391Z,10.77
2017-10-05T21:20:34.698Z,10.78
2017-10-05T21:23:03.024Z,10.76
2017-10-05T21:25:31.349Z,10.73
2017-10-05T21:27:59.698Z,10.70
2017-10-05T21:30:28.019Z,10.68
2017-10-05T21:32:56.330Z,10.72
2017-10-05T21:35:24.646Z,10.80
2017-10-05T21:37:53.723Z,10.74
2017-10-05T21:40:22.055Z,10.68
2017-10-05T21:42:50.372Z,10.66
2017-10-05T21:45:18.738Z,10.64
2017-10-05T21:47:47.059Z,10.66
2017-10-05T21:50:15.403Z,10.60
2017-10-05T21:52:43.720Z,10.66
2017-10-05T21:55:12.034Z,10.62
2017-10-05T21:57:40.366Z,10.61
2017-10-05T22:00:09.446Z,10.57
2017-10-05T22:02:38.553Z,10.62
2017-10-05T22:05:07.626Z,10.57
2017-10-05T22:07:35.941Z,10.54
2017-10-05T22:10:04.259Z,10.49
2017-10-05T22:12:32.611Z,10.56
2017-10-05T22:15:00.935Z,10.49
2017-10-05T22:17:29.244Z,10.54
2017-10-05T22:19:58.339Z,10.57
2017-10-05T22:22:26.649Z,10.59
2017-10-05T22:24:54.964Z,10.69
2017-10-05T22:27:24.066Z,10.70
2017-10-05T22:29:53.149Z,10.87
2017-10-05T22:32:21.471Z,10.93
2017-10-05T22:34:49.794Z,10.82
2017-10-05T22:37:18.114Z,10.76
2017-10-05T22:39:47.194Z,10.78
2017-10-05T22:42:16.305Z,10.84
2017-10-05T22:44:44.609Z,10.95
2017-10-05T22:47:12.939Z,10.99
2017-10-05T22:49:41.258Z,11.06
2017-10-05T22:52:09.566Z,11.17
2017-10-05T22:54:37.897Z,11.19
2017-10-05T22:57:06.237Z,11.21
2017-10-05T22:59:34.566Z,11.17
2017-10-05T23:02:02.880Z,11.07
2017-10-05T23:04:31.207Z,11.07
2017-10-05T23:06:59.524Z,11.06
2017-10-05T23:09:27.852Z,11.10
2017-10-05T23:11:56.918Z,11.08
2017-10-05T23:14:25.247Z,11.07
2017-10-05T23:16:53.550Z,11.08
2017-10-05T23:19:21.929Z,11.14
2017-10-05T23:21:50.245Z,11.10
2017-10-05T23:24:18.554Z,11.10
2017-10-05T23:26:46.877Z,11.09
2017-10-05T23:29:15.186Z,11.06
2017-10-05T23:31:44.281Z,11.15
2017-10-05T23:34:13.381Z,11.18
2017-10-05T23:36:42.459Z,11.20
2017-10-05T23:39:10.768Z,11.19
2017-10-05T23:41:39.114Z,11.23
2017-10-05T23:44:07.422Z,11.20
2017-10-05T23:46:35.746Z,11.22
2017-10-05T23:49:04.071Z,11.21
2017-10-05T23:51:32.381Z,11.20
2017-10-05T23:54:00.714Z,11.14
2017-10-05T23:56:29.785Z,11.20
2017-10-05T23:58:58.102Z,11.19
